createdAt,value
2022-12-15T00:00:19.094Z,25.02
2022-12-15T00:05:39.399Z,24.80
2022-12-15T00:10:59.844Z,23.92
2022-12-15T00:16:20.342Z,25.25
2022-12-15T00:21:40.865Z,23.77
2022-12-15T00:27:01.258Z,27.30
2022-12-15T00:32:21.721Z,22.75
2022-12-15T00:37:42.026Z,21.60
2022-12-15T00:42:43.703Z,23.58
2022-12-15T00:47:45.362Z,23.40
2022-12-15T00:53:05.775Z,22.83
2022-12-15T00:58:26.280Z,24.58
2022-12-15T01:03:46.733Z,20.85
2022-12-15T01:09:06.914Z,20.63
2022-12-15T01:14:27.265Z,22.50
2022-12-15T01:19:47.612Z,21.92
2022-12-15T01:24:51.243Z,20.98
2022-12-15T01:29:52.933Z,22.63
2022-12-15T01:34:54.679Z,21.42
2022-12-15T01:40:14.781Z,21.23
2022-12-15T01:45:31.102Z,22.27
2022-12-15T01:50:40.590Z,20.75
2022-12-15T01:55:44.200Z,21.27
2022-12-15T02:00:49.686Z,22.08
2022-12-15T02:05:53.015Z,20.90
2022-12-15T02:11:17.034Z,22.48
2022-12-15T02:16:34.351Z,23.23
2022-12-15T02:21:54.927Z,21.90
2022-12-15T02:27:15.738Z,22.67
2022-12-15T02:32:41.786Z,23.02
2022-12-15T02:37:45.383Z,23.70
2022-12-15T02:42:55.512Z,21.77
2022-12-15T02:48:23.038Z,21.77
2022-12-15T02:53:51.321Z,22.08
2022-12-15T02:58:55.809Z,21.65
2022-12-15T03:03:59.510Z,22.08
2022-12-15T03:09:01.230Z,20.70
2022-12-15T03:14:03.062Z,20.17
2022-12-15T03:19:04.907Z,20.85
2022-12-15T03:24:06.893Z,20.02
2022-12-15T03:29:08.674Z,19.55
2022-12-15T03:34:10.740Z,20.55
2022-12-15T03:39:12.538Z,20.93
2022-12-15T03:44:14.241Z,19.92
2022-12-15T03:49:15.915Z,20.08
2022-12-15T03:54:18.028Z,19.95
2022-12-15T03:59:19.688Z,20.67
2022-12-15T04:04:21.356Z,19.92
2022-12-15T04:09:23.038Z,20.73
2022-12-15T04:14:24.861Z,20.20
2022-12-15T04:19:44.948Z,20.17
2022-12-15T04:25:06.113Z,20.45
2022-12-15T04:30:27.035Z,20.63
2022-12-15T04:35:49.922Z,19.35
2022-12-15T04:41:10.445Z,18.63
2022-12-15T04:46:30.931Z,17.40
2022-12-15T04:51:52.235Z,17.65
2022-12-15T04:57:12.667Z,18.67
2022-12-15T05:02:33.307Z,20.40
2022-12-15T05:07:53.668Z,18.83
2022-12-15T05:13:14.197Z,16.58
2022-12-15T05:18:34.502Z,18.80
2022-12-15T05:23:54.824Z,18.08
2022-12-15T05:29:15.282Z,18.30
2022-12-15T05:34:16.936Z,16.83
2022-12-15T05:39:19.198Z,18.58
2022-12-15T05:44:21.163Z,20.10
2022-12-15T05:49:25.734Z,21.27
2022-12-15T05:54:27.403Z,20.15
2022-12-15T05:59:29.088Z,20.83
2022-12-15T06:04:30.824Z,23.05
2022-12-15T06:09:32.562Z,24.00
2022-12-15T06:14:34.238Z,25.77
2022-12-15T06:19:35.979Z,23.85
2022-12-15T06:24:37.821Z,22.70
2022-12-15T06:29:39.451Z,24.00
2022-12-15T06:34:41.461Z,25.33
2022-12-15T06:39:43.163Z,19.63
2022-12-15T06:44:44.843Z,24.77
2022-12-15T06:49:46.559Z,25.17
2022-12-15T06:54:48.247Z,25.70
2022-12-15T06:59:49.923Z,27.27
2022-12-15T07:04:51.702Z,27.55
2022-12-15T07:09:53.510Z,27.83
2022-12-15T07:14:55.269Z,27.92
2022-12-15T07:19:56.994Z,28.92
2022-12-15T07:24:58.650Z,29.15
2022-12-15T07:30:00.346Z,27.10
2022-12-15T07:35:05.050Z,29.27
2022-12-15T07:40:08.004Z,28.00
2022-12-15T07:45:10.971Z,29.15
2022-12-15T07:55:14.354Z,31.42
2022-12-15T08:00:17.439Z,33.40
2022-12-15T08:10:20.934Z,33.42
2022-12-15T08:15:22.733Z,32.33
2022-12-15T08:20:25.764Z,33.03
2022-12-15T08:30:34.234Z,33.70
2022-12-15T08:35:56.432Z,31.98
2022-12-15T08:41:06.095Z,31.90
2022-12-15T08:46:08.675Z,32.88
2022-12-15T08:51:12.101Z,34.03
2022-12-15T08:56:16.959Z,33.80
2022-12-15T09:01:23.689Z,34.85
2022-12-15T09:06:28.693Z,33.88
2022-12-15T09:11:31.215Z,33.88
2022-12-15T09:16:33.049Z,33.20
2022-12-15T09:21:34.911Z,28.88
2022-12-15T09:26:36.657Z,31.50
2022-12-15T09:31:39.186Z,30.13
2022-12-15T09:36:40.976Z,30.67
2022-12-15T09:41:53.598Z,32.95
2022-12-15T09:47:21.534Z,31.50
2022-12-15T09:52:38.251Z,34.10
2022-12-15T09:58:06.042Z,33.08
2022-12-15T10:03:39.388Z,29.48
2022-12-15T10:08:45.219Z,29.45
2022-12-15T10:13:56.858Z,28.80
2022-12-15T10:19:29.586Z,26.48
2022-12-15T10:25:07.907Z,26.07
2022-12-15T10:30:03.712Z,26.92
2022-12-15T10:35:31.817Z,24.83
2022-12-15T10:40:50.799Z,26.08
2022-12-15T10:46:05.058Z,25.35
2022-12-15T10:51:27.381Z,29.27
2022-12-15T10:56:33.602Z,29.30
2022-12-15T11:01:36.128Z,30.27
2022-12-15T11:06:42.334Z,27.35
2022-12-15T11:12:11.837Z,29.23
2022-12-15T11:17:22.823Z,30.08
2022-12-15T11:22:46.494Z,29.27
2022-12-15T11:27:50.446Z,25.17
2022-12-15T11:32:57.582Z,24.35
2022-12-15T11:38:05.565Z,27.58
2022-12-15T11:43:29.897Z,30.70
2022-12-15T11:49:08.117Z,30.92
2022-12-15T11:54:27.595Z,33.22
2022-12-15T11:59:58.348Z,30.95
2022-12-15T12:05:28.894Z,28.65
2022-12-15T12:10:49.263Z,32.10
2022-12-15T12:16:05.833Z,31.85
2022-12-15T12:21:14.959Z,31.20
2022-12-15T12:26:28.352Z,32.33
2022-12-15T12:31:47.034Z,31.67
2022-12-15T12:36:54.866Z,31.65
2022-12-15T12:42:21.573Z,30.23
2022-12-15T12:47:30.910Z,30.40
2022-12-15T12:52:37.430Z,30.25
2022-12-15T12:57:41.585Z,29.58
2022-12-15T13:02:50.622Z,32.40
2022-12-15T13:08:10.478Z,32.17
2022-12-15T13:13:34.127Z,30.85
2022-12-15T13:19:02.044Z,30.58
2022-12-15T13:24:04.300Z,31.00
2022-12-15T13:29:09.585Z,32.97
2022-12-15T13:34:27.028Z,30.95
2022-12-15T13:39:28.623Z,32.83
2022-12-15T13:44:41.409Z,31.30
2022-12-15T13:50:01.729Z,23.43
2022-12-15T13:55:16.185Z,31.50
2022-12-15T14:00:21.562Z,32.75
2022-12-15T14:05:25.921Z,31.33
2022-12-15T14:10:37.344Z,33.83
2022-12-15T14:15:44.104Z,32.30
2022-12-15T14:20:47.343Z,32.88
2022-12-15T14:26:06.390Z,30.95
2022-12-15T14:31:17.305Z,31.73
2022-12-15T14:36:20.400Z,32.67
2022-12-15T14:41:23.931Z,31.30
2022-12-15T14:46:28.194Z,32.08
2022-12-15T14:51:38.381Z,30.92
2022-12-15T14:56:40.127Z,34.92
2022-12-15T15:01:58.335Z,34.00
2022-12-15T15:07:07.674Z,31.80
2022-12-15T15:12:20.574Z,32.35
2022-12-15T15:17:32.743Z,30.25
2022-12-15T15:22:42.836Z,33.00
2022-12-15T15:27:44.516Z,31.38
2022-12-15T15:32:55.158Z,30.88
2022-12-15T15:38:04.075Z,29.75
2022-12-15T15:43:17.269Z,31.00
2022-12-15T15:48:28.468Z,31.05
2022-12-15T15:53:33.051Z,30.92
2022-12-15T15:58:35.969Z,32.78
2022-12-15T16:08:40.579Z,33.20
2022-12-15T16:13:42.306Z,35.38
2022-12-15T16:18:44.114Z,35.67
2022-12-15T16:23:48.364Z,35.78
2022-12-15T16:28:50.001Z,38.15
2022-12-15T16:33:51.754Z,37.85
2022-12-15T16:38:53.426Z,40.15
2022-12-15T16:43:55.072Z,38.72
2022-12-15T16:48:56.789Z,38.80
2022-12-15T16:53:58.528Z,40.60
2022-12-15T16:59:30.744Z,40.72
2022-12-15T17:04:22.772Z,37.95
2022-12-15T17:09:26.078Z,36.60
2022-12-15T17:14:27.722Z,38.55
2022-12-15T17:19:29.419Z,38.03
2022-12-15T17:24:31.178Z,39.42
2022-12-15T17:29:33.454Z,36.70
2022-12-15T17:34:35.205Z,39.30
2022-12-15T17:39:37.399Z,37.83
2022-12-15T17:44:39.833Z,30.50
2022-12-15T17:49:42.162Z,31.00
2022-12-15T17:54:44.122Z,38.08
2022-12-15T17:59:45.916Z,36.70
2022-12-15T18:04:47.691Z,38.05
2022-12-15T18:09:51.484Z,37.35
2022-12-15T18:14:53.696Z,36.97
2022-12-15T18:19:55.789Z,37.28
2022-12-15T18:24:57.488Z,39.03
2022-12-15T18:29:59.344Z,33.97
2022-12-15T18:35:01.247Z,35.13
2022-12-15T18:40:05.038Z,36.78
2022-12-15T18:45:20.344Z,36.15
2022-12-15T18:50:24.570Z,39.47
2022-12-15T18:55:29.797Z,34.67
2022-12-15T19:00:32.362Z,34.40
2022-12-15T19:05:34.138Z,36.78
2022-12-15T19:10:39.904Z,36.30
2022-12-15T19:15:42.230Z,34.55
2022-12-15T19:21:02.656Z,36.33
2022-12-15T19:26:04.455Z,32.38
2022-12-15T19:31:07.983Z,36.85
2022-12-15T19:36:15.674Z,35.03
2022-12-15T19:41:18.340Z,34.50
2022-12-15T19:46:21.823Z,34.25
2022-12-15T19:51:24.911Z,32.67
2022-12-15T20:01:28.669Z,33.78
2022-12-15T20:06:30.719Z,33.03
2022-12-15T20:11:32.936Z,36.30
2022-12-15T20:16:34.653Z,34.83
2022-12-15T20:21:39.209Z,35.13
2022-12-15T20:26:41.437Z,34.47
2022-12-15T20:31:43.182Z,36.90
2022-12-15T20:36:47.714Z,40.28
2022-12-15T20:41:49.384Z,35.95
2022-12-15T20:46:51.373Z,35.38
2022-12-15T20:51:53.125Z,34.10
2022-12-15T20:56:54.780Z,35.35
2022-12-15T21:01:56.577Z,34.17
2022-12-15T21:06:58.690Z,35.25
2022-12-15T21:12:04.465Z,34.05
2022-12-15T21:17:19.680Z,33.45
2022-12-15T21:22:26.475Z,34.88
2022-12-15T21:27:29.675Z,30.27
2022-12-15T21:32:33.533Z,33.78
2022-12-15T21:37:35.289Z,33.80
2022-12-15T21:42:37.072Z,34.63
2022-12-15T21:47:57.245Z,32.90
2022-12-15T21:53:00.367Z,31.05
2022-12-15T21:58:02.066Z,30.13
2022-12-15T22:03:04.040Z,32.22
2022-12-15T22:08:22.061Z,33.40
2022-12-15T22:13:23.883Z,32.28
2022-12-15T22:18:25.639Z,34.10
2022-12-15T22:23:27.291Z,31.45
2022-12-15T22:28:29.653Z,31.27
2022-12-15T22:33:31.693Z,32.90
2022-12-15T22:38:33.769Z,30.77
2022-12-15T22:43:41.534Z,31.57
2022-12-15T22:48:47.315Z,30.55
2022-12-15T22:53:48.962Z,31.23
2022-12-15T22:58:55.737Z,29.15
2022-12-15T23:03:57.644Z,31.08
2022-12-15T23:08:59.286Z,30.67
2022-12-15T23:14:00.933Z,29.85
2022-12-15T23:19:03.435Z,29.85
2022-12-15T23:24:05.338Z,27.40
2022-12-15T23:29:07.015Z,28.10
2022-12-15T23:34:08.674Z,28.00
2022-12-15T23:39:15.329Z,25.60
2022-12-15T23:44:16.996Z,26.20
2022-12-15T23:49:18.603Z,26.15
2022-12-15T23:54:20.263Z,26.92
2022-12-15T23:59:21.888Z,25.98
